Time;durP1;ratioP1;P1;durP2;ratioP2;P2;SDS_P1;SDS_P2;PMS_P1;PMS_P2;Temp;Humidity;BMP_temperature;BMP_pressure;BME280_temperature;BME280_humidity;BME280_pressure;Samples;Min_cycle;Max_cycle;Signal;HPM_P1;HPM_P2
2022/10/18 00:02:20;;;;;;;20.83;15.30;;;9.10;99.90;;;;;;8411654;28;20197;-70
2022/10/18 00:06:21;;;;;;;21.23;14.83;;;9.10;99.90;;;;;;8412984;28;20234;-71
2022/10/18 00:10:23;;;;;;;27.43;19.03;;;9.10;99.90;;;;;;8395528;28;20210;-71
2022/10/18 00:14:24;;;;;;;30.00;21.60;;;9.20;99.90;;;;;;8410167;28;20165;-71
2022/10/18 00:18:25;;;;;;;36.70;25.17;;;9.40;99.90;;;;;;8410866;28;20241;-70
2022/10/18 00:22:26;;;;;;;34.93;24.70;;;9.40;99.90;;;;;;8390566;28;20270;-71
2022/10/18 00:26:29;;;;;;;30.73;22.27;;;9.50;99.90;;;;;;8389262;28;20188;-72
2022/10/18 00:30:30;;;;;;;33.33;22.93;;;9.40;99.90;;;;;;8392761;28;20185;-71
2022/10/18 00:34:30;;;;;;;33.47;22.20;;;9.40;99.90;;;;;;8411085;28;20189;-71
2022/10/18 00:38:31;;;;;;;33.20;21.57;;;9.40;99.90;;;;;;8412881;28;20204;-71
2022/10/18 00:42:34;;;;;;;32.60;23.23;;;9.40;99.90;;;;;;8411562;28;20201;-72
2022/10/18 00:46:41;;;;;;;31.10;22.57;;;9.30;99.90;;;;;;8407055;28;20177;-71
2022/10/18 00:50:42;;;;;;;33.73;22.80;;;9.20;99.90;;;;;;8408336;28;20213;-71
2022/10/18 00:54:45;;;;;;;40.10;25.53;;;9.10;99.90;;;;;;8393166;28;20263;-71
2022/10/18 00:58:47;;;;;;;29.70;21.87;;;9.10;99.90;;;;;;8407661;28;20212;-71
2022/10/18 01:02:48;;;;;;;28.23;21.13;;;9.00;99.90;;;;;;8409348;28;20203;-71
2022/10/18 01:07:19;;;;;;;30.97;20.93;;;9.00;99.90;;;;;;8413381;28;20184;-72
2022/10/18 01:11:41;;;;;;;33.13;23.63;;;9.10;99.90;;;;;;8397347;28;20191;-72
2022/10/18 01:15:45;;;;;;;32.57;24.53;;;9.30;99.90;;;;;;8420919;28;20175;-71
2022/10/18 01:20:16;;;;;;;29.17;21.40;;;9.50;99.90;;;;;;8411796;28;20774;-72
2022/10/18 01:24:20;;;;;;;40.80;27.60;;;9.60;99.90;;;;;;8404362;28;20207;-71
2022/10/18 01:28:42;;;;;;;34.27;23.83;;;9.50;99.90;;;;;;8418017;28;20177;-71
2022/10/18 01:32:49;;;;;;;32.00;23.43;;;9.50;99.90;;;;;;8421131;28;20210;-72
2022/10/18 01:36:52;;;;;;;30.87;23.70;;;9.50;99.90;;;;;;8419648;28;20485;-71
2022/10/18 01:40:55;;;;;;;37.90;25.43;;;9.50;99.90;;;;;;8419016;28;20192;-71
2022/10/18 01:44:57;;;;;;;38.20;26.07;;;9.70;99.90;;;;;;8418987;28;20183;-73
2022/10/18 01:48:58;;;;;;;35.97;25.53;;;10.00;99.90;;;;;;8421230;28;20237;-71
2022/10/18 01:52:59;;;;;;;34.23;25.57;;;10.10;99.90;;;;;;8404305;28;20188;-73
2022/10/18 01:57:22;;;;;;;34.17;26.13;;;10.10;99.90;;;;;;8399578;28;20315;-73
2022/10/18 02:01:32;;;;;;;38.80;27.80;;;10.40;99.90;;;;;;8405959;28;20201;-72
2022/10/18 02:05:46;;;;;;;40.63;28.00;;;10.60;99.90;;;;;;8420380;28;20184;-73
2022/10/18 02:09:57;;;;;;;38.03;27.27;;;10.70;99.90;;;;;;8417565;28;20183;-71
2022/10/18 02:14:11;;;;;;;40.67;28.00;;;10.90;99.90;;;;;;8419164;28;20211;-72
2022/10/18 02:18:28;;;;;;;38.60;26.90;;;11.00;99.90;;;;;;8402421;28;20222;-71
2022/10/18 02:22:31;;;;;;;33.67;25.70;;;11.20;99.90;;;;;;8401220;28;20278;-71
2022/10/18 02:26:32;;;;;;;29.70;23.53;;;11.20;99.90;;;;;;8418599;28;20278;-72
2022/10/18 02:30:46;;;;;;;30.87;22.83;;;11.20;99.90;;;;;;8420193;28;20191;-70
2022/10/18 02:35:01;;;;;;;28.50;21.90;;;11.20;99.90;;;;;;8419678;28;20195;-71
2022/10/18 02:39:06;;;;;;;28.90;23.20;;;11.20;99.90;;;;;;8418492;28;20219;-73
2022/10/18 02:43:07;;;;;;;29.73;21.90;;;11.20;99.90;;;;;;8415127;28;20190;-72
2022/10/18 02:47:10;;;;;;;32.93;23.87;;;11.20;99.90;;;;;;8396644;28;20564;-70
2022/10/18 02:51:11;;;;;;;31.07;24.37;;;11.20;99.90;;;;;;8402096;28;20192;-70
2022/10/18 02:55:11;;;;;;;32.90;24.40;;;11.40;99.90;;;;;;8402814;28;20248;-72
2022/10/18 02:59:12;;;;;;;33.37;24.30;;;11.40;99.90;;;;;;8393056;28;20522;-71
2022/10/18 03:03:13;;;;;;;31.63;23.03;;;11.40;99.90;;;;;;8417693;28;20532;-73
2022/10/18 03:07:14;;;;;;;32.03;23.40;;;11.40;99.90;;;;;;8419023;28;20195;-72
2022/10/18 03:11:15;;;;;;;22.00;18.23;;;11.40;99.90;;;;;;8400006;28;20183;-72
2022/10/18 03:15:15;;;;;;;19.40;15.40;;;11.20;99.90;;;;;;8399923;28;20191;-71
2022/10/18 03:19:16;;;;;;;18.17;14.43;;;10.90;99.90;;;;;;8397513;28;20223;-71
2022/10/18 03:23:17;;;;;;;19.87;14.97;;;10.60;99.90;;;;;;8419013;28;20191;-71
2022/10/18 03:27:17;;;;;;;17.17;14.00;;;10.40;99.90;;;;;;8415601;28;20195;-71
2022/10/18 03:31:18;;;;;;;19.00;13.43;;;10.20;99.90;;;;;;8416548;28;20187;-69
2022/10/18 03:35:19;;;;;;;16.10;12.27;;;9.80;99.90;;;;;;8418158;28;20198;-70
2022/10/18 03:39:20;;;;;;;15.67;11.90;;;9.50;99.90;;;;;;8416297;28;20225;-70
2022/10/18 03:43:21;;;;;;;23.87;17.60;;;9.30;99.90;;;;;;8401354;28;20192;-72
2022/10/18 03:47:22;;;;;;;20.93;16.53;;;9.40;99.90;;;;;;8396310;28;20534;-71
2022/10/18 03:51:23;;;;;;;28.47;20.33;;;9.60;99.90;;;;;;8397808;28;20317;-71
2022/10/18 03:55:24;;;;;;;27.80;20.77;;;9.80;99.90;;;;;;8413112;28;20193;-71
2022/10/18 03:59:24;;;;;;;32.83;24.53;;;10.10;99.90;;;;;;8411178;28;20213;-71
2022/10/18 04:03:25;;;;;;;34.30;25.63;;;10.40;99.90;;;;;;8396441;28;20201;-71
2022/10/18 04:07:26;;;;;;;33.13;24.90;;;10.50;99.90;;;;;;8393223;28;20215;-72
2022/10/18 04:11:27;;;;;;;36.03;25.63;;;10.70;99.90;;;;;;8390726;28;20217;-70
2022/10/18 04:15:27;;;;;;;38.37;27.43;;;10.80;99.90;;;;;;8415420;28;20200;-71
2022/10/18 04:19:28;;;;;;;32.67;25.57;;;11.00;99.90;;;;;;8393730;28;20211;-71
2022/10/18 04:23:29;;;;;;;32.83;26.17;;;11.10;99.90;;;;;;8395903;28;20271;-71
2022/10/18 04:27:30;;;;;;;35.93;25.63;;;11.20;99.90;;;;;;8414354;28;20188;-71
2022/10/18 04:31:30;;;;;;;36.33;26.67;;;11.40;99.90;;;;;;8414557;28;20535;-71
2022/10/18 04:35:31;;;;;;;27.77;23.00;;;11.60;99.90;;;;;;8415579;28;20188;-72
2022/10/18 04:39:32;;;;;;;30.73;24.37;;;11.70;99.90;;;;;;8415727;28;20207;-72
2022/10/18 04:43:33;;;;;;;28.17;22.47;;;11.70;99.90;;;;;;8414156;28;20185;-70
2022/10/18 04:47:34;;;;;;;29.17;22.73;;;11.80;99.90;;;;;;8396332;28;20212;-71
2022/10/18 04:51:34;;;;;;;29.87;23.37;;;11.80;99.90;;;;;;8414008;28;20184;-70
2022/10/18 04:55:35;;;;;;;26.27;21.77;;;11.90;99.90;;;;;;8414256;28;20180;-71
2022/10/18 04:59:36;;;;;;;24.57;21.27;;;11.90;99.90;;;;;;8397943;28;20229;-71
2022/10/18 05:03:37;;;;;;;30.53;21.47;;;12.00;99.90;;;;;;8396758;28;20200;-71
2022/10/18 05:07:37;;;;;;;25.37;22.00;;;12.00;99.90;;;;;;8394763;28;20192;-70
2022/10/18 05:11:38;;;;;;;26.37;21.93;;;12.10;99.90;;;;;;8413662;28;20185;-71
2022/10/18 05:15:39;;;;;;;23.43;19.43;;;12.20;99.90;;;;;;8414108;28;20195;-71
2022/10/18 05:19:40;;;;;;;23.00;20.13;;;12.20;99.90;;;;;;8412719;28;20208;-71
2022/10/18 05:23:41;;;;;;;17.93;15.97;;;12.20;99.90;;;;;;8394387;28;20180;-71
2022/10/18 05:27:41;;;;;;;16.53;14.23;;;12.10;99.90;;;;;;8414300;28;20751;-71
2022/10/18 05:31:42;;;;;;;23.33;20.83;;;11.90;99.90;;;;;;8395194;28;20179;-71
2022/10/18 05:35:43;;;;;;;26.37;20.00;;;12.00;99.90;;;;;;8415261;28;20192;-71
2022/10/18 05:39:44;;;;;;;20.83;17.97;;;12.00;99.90;;;;;;8411976;28;20219;-71
2022/10/18 05:43:45;;;;;;;21.90;17.30;;;12.00;99.90;;;;;;8392201;28;20296;-70
2022/10/18 05:47:45;;;;;;;27.70;20.93;;;11.90;99.90;;;;;;8393755;28;20212;-72
2022/10/18 05:51:46;;;;;;;24.37;18.93;;;11.90;99.90;;;;;;8391326;28;20231;-73
2022/10/18 05:55:47;;;;;;;21.47;18.47;;;11.90;99.90;;;;;;8393428;28;20437;-72
2022/10/18 05:59:48;;;;;;;20.10;16.73;;;11.90;99.90;;;;;;8416842;28;20276;-72
2022/10/18 06:03:49;;;;;;;21.20;16.73;;;11.80;99.90;;;;;;8398437;28;20207;-71
2022/10/18 06:07:50;;;;;;;17.80;15.57;;;11.70;99.90;;;;;;8416259;28;20209;-71
2022/10/18 06:11:51;;;;;;;20.10;16.77;;;11.70;99.90;;;;;;8398505;28;20215;-72
2022/10/18 06:15:56;;;;;;;20.93;16.77;;;11.70;99.90;;;;;;8414400;28;20191;-71
2022/10/18 06:19:57;;;;;;;18.67;15.27;;;11.80;99.90;;;;;;8394917;28;20216;-72
2022/10/18 06:23:58;;;;;;;16.40;14.60;;;11.90;99.90;;;;;;8414689;28;20207;-71
2022/10/18 06:27:59;;;;;;;25.90;19.70;;;12.00;99.90;;;;;;8395845;28;20199;-71
2022/10/18 06:32:00;;;;;;;21.90;18.37;;;12.10;99.90;;;;;;8397010;28;20192;-72
2022/10/18 06:36:06;;;;;;;23.80;19.00;;;12.20;99.90;;;;;;8415544;28;20235;-71
2022/10/18 06:40:07;;;;;;;24.67;18.40;;;12.40;99.90;;;;;;8412949;28;20212;-72
2022/10/18 06:44:13;;;;;;;20.30;17.83;;;12.70;99.90;;;;;;8415785;28;20195;-71
2022/10/18 06:48:14;;;;;;;21.20;17.27;;;13.00;99.90;;;;;;8394268;28;20185;-71
2022/10/18 06:52:21;;;;;;;17.37;15.13;;;13.40;99.90;;;;;;8395916;28;20210;-71
2022/10/18 06:56:22;;;;;;;19.83;16.80;;;13.80;99.90;;;;;;8413640;28;20188;-71
2022/10/18 07:00:22;;;;;;;19.13;15.63;;;14.10;99.90;;;;;;8413400;28;20219;-72
2022/10/18 07:04:26;;;;;;;17.40;14.53;;;14.50;99.90;;;;;;8394815;28;20196;-70
2022/10/18 07:08:27;;;;;;;18.20;13.83;;;14.70;99.90;;;;;;8393466;28;20189;-71
2022/10/18 07:12:28;;;;;;;16.23;13.73;;;15.00;99.90;;;;;;8414414;28;20646;-72
2022/10/18 07:16:29;;;;;;;17.60;13.37;;;15.20;99.90;;;;;;8393873;28;20445;-72
2022/10/18 07:20:30;;;;;;;20.27;15.10;;;15.50;99.90;;;;;;8413565;28;20215;-71
2022/10/18 07:24:31;;;;;;;18.97;13.13;;;15.60;99.90;;;;;;8395874;28;20271;-71
2022/10/18 07:28:32;;;;;;;15.63;12.97;;;15.70;99.90;;;;;;8393671;28;20482;-71
2022/10/18 07:32:33;;;;;;;14.67;12.57;;;15.80;99.90;;;;;;8395717;28;20206;-71
2022/10/18 07:36:34;;;;;;;16.20;13.20;;;16.00;99.90;;;;;;8412951;28;20196;-71
2022/10/18 07:40:34;;;;;;;17.67;12.63;;;16.30;93.30;;;;;;8395638;28;20219;-70
2022/10/18 07:44:35;;;;;;;14.33;12.50;;;16.60;99.90;;;;;;8410522;28;20187;-70
2022/10/18 07:48:36;;;;;;;13.57;11.73;;;16.80;99.90;;;;;;8393975;28;20180;-71
2022/10/18 07:52:37;;;;;;;13.47;11.67;;;17.10;18.30;;;;;;8411632;28;20274;-70
2022/10/18 07:56:37;;;;;;;17.77;12.07;;;17.20;1.00;;;;;;8414399;28;20209;-70
2022/10/18 08:00:38;;;;;;;14.50;12.07;;;17.30;1.00;;;;;;8413660;28;20208;-71
2022/10/18 08:04:40;;;;;;;15.00;13.00;;;17.30;99.90;;;;;;8415408;28;20248;-71
2022/10/18 08:08:41;;;;;;;12.67;11.00;;;17.20;99.90;;;;;;8413158;28;20501;-70
2022/10/18 08:12:42;;;;;;;12.17;10.83;;;17.10;1.00;;;;;;8392658;28;20256;-70
2022/10/18 08:16:43;;;;;;;12.43;10.70;;;17.20;99.90;;;;;;8410527;28;21540;-71
2022/10/18 08:20:44;;;;;;;13.07;11.50;;;17.20;1.00;;;;;;8395969;28;20300;-72
2022/10/18 08:24:45;;;;;;;10.57;9.50;;;17.30;99.90;;;;;;8409841;28;20180;-71
2022/10/18 08:28:47;;;;;;;13.03;10.67;;;17.30;1.00;;;;;;8412002;28;20234;-70
2022/10/18 08:32:48;;;;;;;11.23;10.13;;;17.40;1.00;;;;;;8391751;28;20239;-71
2022/10/18 08:36:49;;;;;;;13.47;11.57;;;17.50;99.90;;;;;;8411685;28;20192;-70
2022/10/18 08:40:50;;;;;;;14.80;12.90;;;17.60;99.90;;;;;;8393572;28;20261;-70
2022/10/18 08:44:52;;;;;;;16.93;12.40;;;17.70;99.90;;;;;;8393606;28;20188;-70
2022/10/18 08:48:55;;;;;;;15.33;11.87;;;17.90;99.90;;;;;;8393344;28;20187;-70
2022/10/18 08:53:18;;;;;;;12.20;9.77;;;18.00;99.90;;;;;;8393659;28;20188;-71
2022/10/18 08:57:19;;;;;;;14.97;11.87;;;18.40;99.90;;;;;;8411328;28;20283;-69
2022/10/18 09:01:45;;;;;;;14.83;12.77;;;18.50;22.80;;;;;;8411341;28;20208;-70
2022/10/18 09:05:55;;;;;;;11.93;10.10;;;18.50;56.50;;;;;;8406227;28;20184;-70
2022/10/18 09:10:15;;;;;;;12.20;10.90;;;18.70;50.50;;;;;;8412216;28;20196;-69
2022/10/18 09:14:19;;;;;;;11.33;9.23;;;19.10;1.00;;;;;;8388145;28;20208;-69
2022/10/18 09:18:57;;;;;;;10.93;9.83;;;19.60;1.00;;;;;;8392060;28;20204;-70
2022/10/18 09:23:11;;;;;;;16.57;11.00;;;19.80;1.00;;;;;;8395805;28;20252;-68
2022/10/18 09:27:17;;;;;;;12.90;10.37;;;19.70;1.00;;;;;;8411430;28;20185;-70
2022/10/18 09:31:25;;;;;;;12.97;10.50;;;19.90;1.00;;;;;;8416784;28;20263;-69
2022/10/18 09:35:41;;;;;;;13.43;10.27;;;20.10;1.00;;;;;;8419423;28;20181;-70
2022/10/18 09:39:43;;;;;;;14.37;9.43;;;20.10;99.90;;;;;;8415768;28;20289;-70
2022/10/18 09:44:11;;;;;;;11.30;10.10;;;19.80;1.00;;;;;;8400795;28;20185;-68
2022/10/18 09:48:19;;;;;;;12.83;10.13;;;19.40;1.00;;;;;;8399788;28;20204;-68
2022/10/18 09:52:38;;;;;;;11.80;10.63;;;18.90;1.00;;;;;;8419614;28;20226;-69
2022/10/18 09:56:49;;;;;;;14.77;10.57;;;18.70;99.90;;;;;;8418389;28;20204;-69
2022/10/18 10:00:51;;;;;;;12.90;10.67;;;18.80;92.30;;;;;;8415755;28;20220;-69
2022/10/18 10:04:54;;;;;;;11.63;10.37;;;18.80;99.90;;;;;;8397433;28;20196;-69
2022/10/18 10:09:12;;;;;;;11.77;10.03;;;18.80;61.20;;;;;;8398435;28;20267;-69
2022/10/18 10:13:21;;;;;;;13.00;10.57;;;18.70;3.00;;;;;;8400675;28;20524;-69
2022/10/18 10:17:29;;;;;;;14.07;10.77;;;18.70;99.90;;;;;;8415721;28;20204;-70
2022/10/18 10:21:30;;;;;;;11.80;10.13;;;18.70;19.20;;;;;;8418736;28;20267;-70
2022/10/18 10:25:34;;;;;;;11.57;10.33;;;18.60;47.40;;;;;;8419203;28;20192;-69
2022/10/18 10:29:44;;;;;;;17.87;10.93;;;18.50;99.80;;;;;;8402099;28;21224;-69
2022/10/18 10:33:46;;;;;;;12.23;10.93;;;18.40;99.90;;;;;;8415470;28;20184;-70
2022/10/18 10:37:52;;;;;;;12.93;10.83;;;18.20;99.90;;;;;;8397608;28;20207;-69
2022/10/18 10:41:58;;;;;;;13.10;10.60;;;18.00;99.90;;;;;;8413392;28;20309;-69
2022/10/18 10:46:13;;;;;;;13.77;11.50;;;18.00;1.00;;;;;;8414870;28;20189;-68
2022/10/18 10:50:46;;;;;;;11.73;10.37;;;18.20;99.90;;;;;;8415609;28;20318;-69
2022/10/18 10:54:47;;;;;;;14.80;12.27;;;18.30;99.90;;;;;;8414579;28;20195;-68
2022/10/18 10:58:49;;;;;;;15.20;12.73;;;18.40;99.90;;;;;;8414754;28;20261;-68
2022/10/18 11:03:05;;;;;;;14.87;11.70;;;18.50;99.90;;;;;;8394303;28;20208;-69
2022/10/18 11:07:25;;;;;;;13.27;11.83;;;18.50;99.90;;;;;;8397775;28;20475;-69
2022/10/18 11:11:32;;;;;;;17.93;12.67;;;18.30;99.90;;;;;;8417858;28;20199;-69
2022/10/18 11:15:37;;;;;;;13.20;11.43;;;18.10;99.90;;;;;;8396498;28;20268;-69
2022/10/18 11:20:06;;;;;;;18.83;11.87;;;18.10;99.90;;;;;;8396785;28;20208;-68
2022/10/18 11:24:15;;;;;;;15.97;13.60;;;18.30;99.90;;;;;;8413597;28;20271;-69
2022/10/18 11:28:37;;;;;;;15.33;13.30;;;18.40;99.90;;;;;;8414321;28;20176;-68
2022/10/18 11:32:53;;;;;;;13.10;11.43;;;18.40;99.90;;;;;;8414133;28;20199;-68
2022/10/18 11:37:35;;;;;;;15.03;12.63;;;18.40;99.90;;;;;;8414878;28;20185;-69
2022/10/18 11:42:03;;;;;;;17.63;12.87;;;18.50;99.90;;;;;;8395045;28;20203;-69
2022/10/18 11:46:30;;;;;;;17.07;13.07;;;18.70;57.00;;;;;;8393909;28;20195;-68
2022/10/18 11:50:49;;;;;;;15.67;13.60;;;18.70;1.00;;;;;;8397079;28;20181;-69
2022/10/18 11:54:55;;;;;;;15.10;12.70;;;18.80;63.30;;;;;;8410635;28;20188;-69
2022/10/18 11:59:14;;;;;;;17.83;12.60;;;18.80;1.00;;;;;;8411547;28;20204;-69
2022/10/18 12:03:26;;;;;;;14.83;12.17;;;19.00;1.30;;;;;;8396962;28;20249;-69
2022/10/18 12:07:33;;;;;;;16.90;13.13;;;19.40;1.00;;;;;;8395393;28;20176;-68
2022/10/18 12:11:45;;;;;;;19.77;11.87;;;19.50;1.00;;;;;;8410491;28;20195;-68
2022/10/18 12:15:47;;;;;;;15.17;12.70;;;19.50;99.90;;;;;;8414556;28;20181;-68
2022/10/18 12:19:50;;;;;;;14.40;12.00;;;19.20;1.00;;;;;;8392881;28;20250;-68
2022/10/18 12:24:17;;;;;;;17.73;12.97;;;18.80;1.00;;;;;;8413993;28;20188;-69
2022/10/18 12:28:26;;;;;;;21.43;14.97;;;18.30;61.60;;;;;;8411762;28;20172;-73
2022/10/18 12:32:33;;;;;;;19.97;14.50;;;17.70;1.00;;;;;;8403112;28;20185;-71
2022/10/18 12:36:43;;;;;;;20.20;16.20;;;16.80;1.00;;;;;;8413079;28;20172;-71
2022/10/18 12:40:47;;;;;;;22.47;18.30;;;16.20;99.90;;;;;;8396070;28;20212;-70
2022/10/18 12:44:48;;;;;;;23.40;20.17;;;15.80;99.90;;;;;;8414655;28;20176;-70
2022/10/18 12:49:11;;;;;;;24.30;21.27;;;15.30;99.90;;;;;;8414202;28;20189;-71
2022/10/18 12:53:16;;;;;;;27.43;22.90;;;15.00;99.90;;;;;;8413759;28;20180;-71
2022/10/18 12:57:22;;;;;;;27.93;23.20;;;14.80;99.90;;;;;;8393975;28;20950;-71
2022/10/18 13:01:24;;;;;;;30.40;23.83;;;14.80;99.90;;;;;;8413797;28;20263;-73
2022/10/18 13:05:50;;;;;;;24.47;19.93;;;14.70;99.90;;;;;;8395674;28;20276;-71
2022/10/18 13:10:11;;;;;;;16.30;13.57;;;14.80;99.90;;;;;;8404613;28;20283;-70
2022/10/18 13:14:24;;;;;;;13.17;10.23;;;14.70;99.90;;;;;;8411955;28;20184;-68
2022/10/18 13:18:58;;;;;;;10.73;9.63;;;14.60;99.90;;;;;;8398666;28;20223;-68
2022/10/18 13:23:26;;;;;;;9.97;8.63;;;14.60;99.90;;;;;;8393680;28;20232;-67
2022/10/18 13:27:52;;;;;;;12.20;9.40;;;14.60;99.90;;;;;;8391713;28;20572;-68
2022/10/18 13:32:04;;;;;;;10.47;8.47;;;14.60;99.90;;;;;;8411882;28;20211;-67
2022/10/18 13:36:17;;;;;;;10.50;7.10;;;14.60;99.90;;;;;;8392831;28;20192;-68
2022/10/18 13:40:24;;;;;;;6.73;5.13;;;14.50;99.90;;;;;;8393134;28;20302;-67
2022/10/18 13:44:36;;;;;;;5.67;4.37;;;14.50;99.90;;;;;;8393358;28;20207;-67
2022/10/18 13:48:37;;;;;;;5.13;4.33;;;14.50;99.90;;;;;;8410161;28;20181;-68
2022/10/18 13:53:19;;;;;;;3.97;3.53;;;14.40;99.90;;;;;;8390699;28;20282;-68
2022/10/18 13:57:44;;;;;;;4.00;3.50;;;14.40;99.90;;;;;;8251549;28;20342;-69
2022/10/18 14:02:04;;;;;;;4.43;3.60;;;14.40;99.90;;;;;;8350419;28;20184;-67
2022/10/18 14:06:25;;;;;;;4.40;3.50;;;14.40;99.90;;;;;;8390445;28;20187;-68
2022/10/18 14:10:39;;;;;;;4.77;3.60;;;14.40;99.90;;;;;;8410711;28;20189;-68
2022/10/18 14:15:10;;;;;;;5.10;2.67;;;14.40;99.90;;;;;;8411099;28;20181;-68
2022/10/18 14:19:35;;;;;;;1.90;1.70;;;14.40;99.90;;;;;;8404120;28;20602;-67
2022/10/18 14:23:45;;;;;;;2.60;1.73;;;14.30;99.90;;;;;;8391065;28;20191;-67
2022/10/18 14:27:46;;;;;;;2.50;1.60;;;14.30;99.90;;;;;;8415422;28;20300;-68
2022/10/18 14:31:53;;;;;;;3.13;2.33;;;14.30;99.90;;;;;;8397332;28;20180;-68
2022/10/18 14:36:06;;;;;;;2.70;1.90;;;14.30;99.90;;;;;;8394853;28;20196;-68
2022/10/18 14:40:25;;;;;;;3.83;3.43;;;14.30;99.90;;;;;;8416402;28;20208;-68
2022/10/18 14:44:29;;;;;;;2.20;1.87;;;14.20;99.90;;;;;;8397390;28;20184;-68
2022/10/18 14:48:30;;;;;;;4.43;2.07;;;14.30;99.90;;;;;;8414614;28;20195;-68
2022/10/18 14:52:32;;;;;;;3.00;1.90;;;14.20;99.90;;;;;;8415279;28;20461;-68
2022/10/18 14:56:39;;;;;;;3.73;2.30;;;14.30;99.90;;;;;;8394866;28;20189;-68
2022/10/18 15:00:40;;;;;;;2.70;1.90;;;14.20;99.90;;;;;;8390384;28;20208;-68
2022/10/18 15:04:44;;;;;;;2.60;1.70;;;14.20;99.90;;;;;;8415709;28;20188;-69
2022/10/18 15:08:48;;;;;;;2.10;1.90;;;14.20;99.90;;;;;;8392937;28;20208;-68
2022/10/18 15:12:51;;;;;;;2.43;1.73;;;14.20;99.90;;;;;;8413472;28;20187;-69
2022/10/18 15:16:57;;;;;;;1.93;1.60;;;14.10;99.90;;;;;;8396452;28;20192;-68
2022/10/18 15:21:28;;;;;;;1.60;1.23;;;14.10;99.90;;;;;;8413601;28;20287;-68
2022/10/18 15:25:31;;;;;;;2.03;1.40;;;14.10;99.90;;;;;;8413363;28;20196;-68
2022/10/18 15:29:35;;;;;;;1.80;1.40;;;14.10;99.90;;;;;;8414751;28;20181;-67
2022/10/18 15:33:36;;;;;;;2.33;1.40;;;14.10;99.90;;;;;;8394750;28;20297;-68
2022/10/18 15:37:41;;;;;;;3.80;1.53;;;14.10;99.90;;;;;;8392421;28;20192;-67
2022/10/18 15:41:55;;;;;;;2.10;1.73;;;14.10;99.90;;;;;;8394506;28;20177;-68
2022/10/18 15:46:02;;;;;;;3.60;1.70;;;14.00;99.90;;;;;;8395715;28;20187;-68
2022/10/18 15:50:03;;;;;;;3.87;1.80;;;14.00;99.90;;;;;;8413535;28;20223;-67
2022/10/18 15:54:04;;;;;;;2.73;1.70;;;14.00;99.90;;;;;;8394150;28;20200;-69
2022/10/18 15:58:18;;;;;;;3.07;2.00;;;14.00;99.90;;;;;;8412284;28;20236;-68
2022/10/18 16:02:19;;;;;;;4.07;2.20;;;14.00;99.90;;;;;;8391673;28;20199;-68
2022/10/18 16:06:20;;;;;;;4.10;2.37;;;14.00;99.90;;;;;;8413198;28;20181;-68
2022/10/18 16:10:21;;;;;;;3.13;2.17;;;14.00;99.90;;;;;;8409294;28;20199;-68
2022/10/18 16:14:23;;;;;;;4.50;2.13;;;13.90;99.90;;;;;;8391666;28;20223;-68
2022/10/18 16:18:25;;;;;;;2.53;2.10;;;13.90;99.90;;;;;;8412693;28;20430;-67
2022/10/18 16:22:26;;;;;;;3.50;2.57;;;13.90;99.90;;;;;;8395300;28;20200;-68
2022/10/18 16:26:28;;;;;;;3.10;2.37;;;13.90;99.90;;;;;;8412585;28;20209;-67
2022/10/18 16:30:33;;;;;;;2.67;2.27;;;13.90;99.90;;;;;;8410278;28;20204;-67
2022/10/18 16:34:34;;;;;;;5.50;2.90;;;13.80;99.90;;;;;;8386137;28;20196;-68
2022/10/18 16:38:36;;;;;;;3.27;2.50;;;13.90;99.90;;;;;;8412393;28;20204;-68
2022/10/18 16:42:37;;;;;;;3.10;2.40;;;13.80;99.90;;;;;;8394633;28;20196;-68
2022/10/18 16:46:39;;;;;;;2.23;2.03;;;13.80;99.90;;;;;;8411042;28;20177;-68
2022/10/18 16:50:40;;;;;;;2.60;2.30;;;13.70;99.90;;;;;;8412364;28;20215;-68
2022/10/18 16:54:41;;;;;;;3.07;2.77;;;13.70;99.90;;;;;;8411409;28;20390;-67
2022/10/18 16:58:43;;;;;;;3.80;2.67;;;13.70;99.90;;;;;;8392337;28;20244;-67
2022/10/18 17:02:44;;;;;;;3.20;2.90;;;13.60;99.90;;;;;;8410998;28;20205;-67
2022/10/18 17:06:46;;;;;;;4.20;3.30;;;13.60;99.90;;;;;;8390736;28;20184;-67
2022/10/18 17:10:48;;;;;;;4.10;3.23;;;13.60;99.90;;;;;;8410808;28;20191;-68
2022/10/18 17:14:49;;;;;;;3.80;3.40;;;13.60;99.90;;;;;;8386708;28;20237;-68
2022/10/18 17:18:50;;;;;;;3.93;3.53;;;13.60;99.90;;;;;;8409572;28;20242;-68
2022/10/18 17:22:52;;;;;;;4.67;3.80;;;13.60;99.90;;;;;;8411752;28;20188;-68
2022/10/18 17:26:53;;;;;;;5.17;4.07;;;13.60;99.90;;;;;;8409476;28;20233;-69
2022/10/18 17:30:54;;;;;;;4.03;3.57;;;13.60;99.90;;;;;;8388560;28;20188;-68
2022/10/18 17:34:54;;;;;;;3.83;3.43;;;13.60;99.90;;;;;;8395138;28;20219;-68
2022/10/18 17:38:57;;;;;;;4.70;3.87;;;13.50;99.90;;;;;;8389521;28;20231;-68
2022/10/18 17:42:58;;;;;;;3.87;3.47;;;13.40;99.90;;;;;;8392568;28;20184;-68
2022/10/18 17:46:59;;;;;;;5.97;3.97;;;13.30;99.90;;;;;;8409624;28;20195;-68
2022/10/18 17:51:06;;;;;;;4.17;3.63;;;13.20;99.90;;;;;;8394131;28;20189;-68
2022/10/18 17:55:07;;;;;;;4.77;3.87;;;13.20;99.90;;;;;;8397940;28;20188;-68
2022/10/18 17:59:08;;;;;;;4.13;3.47;;;13.20;99.90;;;;;;8398440;28;20212;-67
2022/10/18 18:03:09;;;;;;;6.00;3.93;;;13.20;99.90;;;;;;8415109;28;20211;-68
2022/10/18 18:07:13;;;;;;;4.20;3.80;;;13.20;99.90;;;;;;8416601;28;20188;-68
2022/10/18 18:11:17;;;;;;;5.63;4.57;;;13.30;99.90;;;;;;8415377;28;20181;-68
2022/10/18 18:15:18;;;;;;;5.47;4.90;;;13.30;99.90;;;;;;8399033;28;20486;-68
2022/10/18 18:19:19;;;;;;;7.03;5.57;;;13.30;99.90;;;;;;8381718;28;20212;-68
2022/10/18 18:23:20;;;;;;;6.30;5.00;;;13.30;99.90;;;;;;8394583;28;20191;-68
2022/10/18 18:27:22;;;;;;;6.37;4.97;;;13.40;99.90;;;;;;8416923;28;20180;-68
2022/10/18 18:31:24;;;;;;;7.43;6.17;;;13.40;99.90;;;;;;8397228;28;20203;-69
2022/10/18 18:35:25;;;;;;;8.97;6.67;;;13.40;99.90;;;;;;8397361;28;20197;-68
2022/10/18 18:39:34;;;;;;;8.03;6.37;;;13.40;99.90;;;;;;8413323;28;20215;-69
2022/10/18 18:43:36;;;;;;;9.17;6.60;;;13.40;99.90;;;;;;8398670;28;20172;-69
2022/10/18 18:47:38;;;;;;;7.63;6.33;;;13.50;99.90;;;;;;8413598;28;20497;-69
2022/10/18 18:51:41;;;;;;;8.20;6.90;;;13.50;99.90;;;;;;8413878;28;20185;-69
2022/10/18 18:55:42;;;;;;;8.27;6.83;;;13.50;99.90;;;;;;8395550;28;20189;-69
2022/10/18 18:59:43;;;;;;;8.03;6.70;;;13.60;99.90;;;;;;8393722;28;20511;-69
2022/10/18 19:03:47;;;;;;;7.73;6.37;;;13.60;99.90;;;;;;8397051;28;20196;-69
2022/10/18 19:07:48;;;;;;;11.43;7.33;;;13.60;99.90;;;;;;8415251;28;20181;-74
2022/10/18 19:11:51;;;;;;;8.23;7.07;;;13.60;99.90;;;;;;8416497;28;20210;-69
2022/10/18 19:16:19;;;;;;;8.27;6.70;;;13.60;99.90;;;;;;8395805;28;20284;-69
2022/10/18 19:20:20;;;;;;;8.00;7.00;;;13.60;99.90;;;;;;8393934;28;20246;-69
2022/10/18 19:24:23;;;;;;;8.83;6.37;;;13.60;99.90;;;;;;8396722;28;20185;-69
2022/10/18 19:28:24;;;;;;;8.10;6.60;;;13.60;99.90;;;;;;8395766;28;20212;-70
2022/10/18 19:32:25;;;;;;;7.57;6.27;;;13.60;99.90;;;;;;8413779;28;20185;-69
2022/10/18 19:36:26;;;;;;;6.70;5.80;;;13.60;99.90;;;;;;8412520;28;20299;-69
2022/10/18 19:40:27;;;;;;;8.43;6.10;;;13.60;99.90;;;;;;8397587;28;20212;-69
2022/10/18 19:44:30;;;;;;;8.43;6.40;;;13.60;99.90;;;;;;8415015;28;20176;-69
2022/10/18 19:48:31;;;;;;;6.37;5.30;;;13.50;99.90;;;;;;8386499;28;20280;-69
2022/10/18 19:52:34;;;;;;;6.07;5.47;;;13.40;99.90;;;;;;8396052;28;20185;-69
2022/10/18 19:56:35;;;;;;;7.97;5.97;;;13.30;99.90;;;;;;8412095;28;20192;-69
2022/10/18 20:00:35;;;;;;;7.47;6.03;;;13.30;99.90;;;;;;8412610;28;20239;-70
2022/10/18 20:04:39;;;;;;;6.73;5.93;;;13.30;99.90;;;;;;8394459;28;20231;-70
2022/10/18 20:08:40;;;;;;;8.97;6.80;;;13.40;99.90;;;;;;8393195;28;20277;-69
2022/10/18 20:12:41;;;;;;;8.17;6.07;;;13.40;99.90;;;;;;8394855;28;20472;-69
2022/10/18 20:16:42;;;;;;;7.17;6.47;;;13.40;99.90;;;;;;8393043;28;20201;-68
2022/10/18 20:20:43;;;;;;;10.33;6.57;;;13.40;99.90;;;;;;8393223;28;21172;-69
2022/10/18 20:24:44;;;;;;;8.83;6.37;;;13.40;99.90;;;;;;8387508;28;20199;-69
2022/10/18 20:28:55;;;;;;;8.40;6.10;;;13.40;99.90;;;;;;8391760;28;20204;-69
2022/10/18 20:32:57;;;;;;;10.00;6.90;;;13.40;99.90;;;;;;8410885;28;20193;-69
2022/10/18 20:36:57;;;;;;;7.13;6.43;;;13.40;99.90;;;;;;8394281;28;20187;-69
2022/10/18 20:41:06;;;;;;;8.00;5.93;;;13.30;99.90;;;;;;8413074;28;20267;-69
2022/10/18 20:45:09;;;;;;;7.93;7.13;;;13.30;99.90;;;;;;8408849;28;20263;-69
2022/10/18 20:49:13;;;;;;;9.00;6.87;;;13.10;99.90;;;;;;8393715;28;20231;-68
2022/10/18 20:53:14;;;;;;;9.53;7.63;;;13.10;99.90;;;;;;8409610;28;20577;-69
2022/10/18 20:57:14;;;;;;;10.90;6.97;;;13.20;99.90;;;;;;8393515;28;20249;-69
2022/10/18 21:01:26;;;;;;;10.23;7.43;;;13.20;99.90;;;;;;8390090;28;20237;-69